Time;durP1;ratioP1;P1;durP2;ratioP2;P2;SDS_P1;SDS_P2;PMS_P1;PMS_P2;Temp;Humidity;BMP_temperature;BMP_pressure;BME280_temperature;BME280_humidity;BME280_pressure;Samples;Min_cycle;Max_cycle;Signal;HPM_P1;HPM_P2
2023/06/30 00:00:30;;;;;;;;;;;;;;;18.81;47.32;100665.03;7354256;19;19931;-59
2023/06/30 00:02:56;;;;;;;;;;;;;;;18.81;47.20;100662.38;7345113;19;19918;-58
2023/06/30 00:05:21;;;;;;;;;;;;;;;18.80;47.17;100652.69;7349693;19;19926;-59
2023/06/30 00:07:47;;;;;;;;;;;;;;;18.79;47.36;100648.34;7345558;19;19919;-58
2023/06/30 00:10:12;;;;;;;;;;;;;;;18.76;47.74;100648.56;7354667;19;19926;-59
2023/06/30 00:12:37;;;;;;;;;;;;;;;18.74;47.80;100634.53;7347042;19;20290;-58
2023/06/30 00:15:03;;;;;;;;;;;;;;;18.72;48.06;100633.78;7354046;19;19926;-59
2023/06/30 00:17:28;;;;;;;;;;;;;;;18.71;48.06;100632.09;7350547;19;20655;-59
2023/06/30 00:19:57;;;;;;;;;;;;;;;18.69;48.45;100626.03;7352916;19;19918;-58
2023/06/30 00:22:22;;;;;;;;;;;;;;;18.67;48.41;100635.81;7349656;19;19919;-59
2023/06/30 00:24:55;;;;;;;;;;;;;;;18.63;49.06;100644.88;7351659;19;20587;-59
2023/06/30 00:27:20;;;;;;;;;;;;;;;18.62;48.94;100635.22;7349661;19;20358;-58
2023/06/30 00:29:45;;;;;;;;;;;;;;;18.59;49.18;100636.25;7350948;19;19923;-59
2023/06/30 00:32:11;;;;;;;;;;;;;;;18.57;48.93;100632.84;7353499;19;19943;-59
2023/06/30 00:34:36;;;;;;;;;;;;;;;18.56;48.64;100635.59;7349148;19;20728;-59
2023/06/30 00:37:01;;;;;;;;;;;;;;;18.55;48.93;100631.22;7348661;19;19926;-58
2023/06/30 00:39:26;;;;;;;;;;;;;;;18.54;49.16;100626.88;7348140;19;20462;-59
2023/06/30 00:41:52;;;;;;;;;;;;;;;18.53;49.17;100625.16;7350684;19;20038;-59
2023/06/30 00:44:17;;;;;;;;;;;;;;;18.52;49.05;100629.59;7347057;19;19927;-59
2023/06/30 00:46:43;;;;;;;;;;;;;;;18.52;49.33;100623.47;7349063;19;19950;-59
2023/06/30 00:49:08;;;;;;;;;;;;;;;18.51;49.16;100613.84;7346032;19;19994;-59
2023/06/30 00:51:34;;;;;;;;;;;;;;;18.51;48.97;100619.13;7344393;19;19918;-59
2023/06/30 00:53:59;;;;;;;;;;;;;;;18.49;49.53;100623.63;7351820;19;19922;-59
2023/06/30 00:56:24;;;;;;;;;;;;;;;18.48;49.60;100619.28;7348929;19;19922;-58
2023/06/30 00:58:49;;;;;;;;;;;;;;;18.45;49.59;100612.41;7352191;19;19964;-59
2023/06/30 01:01:15;;;;;;;;;;;;;;;18.43;49.74;100606.31;7346849;19;20376;-58
2023/06/30 01:03:42;;;;;;;;;;;;;;;18.39;50.17;100608.28;7351256;19;19927;-59
2023/06/30 01:06:13;;;;;;;;;;;;;;;18.34;49.91;100599.75;7350476;19;20348;-58
2023/06/30 01:08:38;;;;;;;;;;;;;;;18.29;49.70;100609.75;7350057;19;19919;-59
2023/06/30 01:11:04;;;;;;;;;;;;;;;18.26;49.96;100596.72;7347475;19;20406;-58
2023/06/30 01:13:31;;;;;;;;;;;;;;;18.24;50.30;100598.56;7341092;19;19927;-59
2023/06/30 01:15:57;;;;;;;;;;;;;;;18.21;50.17;100593.47;7349801;19;21390;-58
2023/06/30 01:18:22;;;;;;;;;;;;;;;18.19;50.29;100590.06;7350000;19;19919;-59
2023/06/30 01:20:48;;;;;;;;;;;;;;;18.17;50.29;100585.81;7351814;19;19925;-59
2023/06/30 01:23:22;;;;;;;;;;;;;;;18.14;50.58;100585.03;7342176;19;19993;-58
2023/06/30 01:25:47;;;;;;;;;;;;;;;18.12;50.63;100578.13;7349962;19;20383;-58
2023/06/30 01:28:13;;;;;;;;;;;;;;;18.10;50.22;100578.22;7341149;19;19922;-59
2023/06/30 01:30:38;;;;;;;;;;;;;;;18.08;50.66;100568.66;7350347;19;19919;-58
2023/06/30 01:33:04;;;;;;;;;;;;;;;18.04;50.58;100570.63;7349789;19;19934;-59
2023/06/30 01:35:29;;;;;;;;;;;;;;;17.98;50.78;100568.31;7350373;19;19931;-59
2023/06/30 01:37:55;;;;;;;;;;;;;;;17.94;51.00;100558.00;7348471;19;19925;-58
2023/06/30 01:40:21;;;;;;;;;;;;;;;17.88;51.28;100562.69;7349093;19;19934;-58
2023/06/30 01:42:47;;;;;;;;;;;;;;;17.85;51.67;100559.38;7344240;19;19918;-59
2023/06/30 01:45:14;;;;;;;;;;;;;;;17.81;51.64;100565.78;7353962;19;19944;-58
2023/06/30 01:47:40;;;;;;;;;;;;;;;17.75;52.28;100548.47;7353858;19;19938;-59
2023/06/30 01:50:05;;;;;;;;;;;;;;;17.70;52.29;100539.91;7360072;19;19922;-59
2023/06/30 01:52:31;;;;;;;;;;;;;;;17.65;52.38;100541.97;7353783;19;19923;-58
2023/06/30 01:54:56;;;;;;;;;;;;;;;17.57;52.71;100534.44;7355814;19;19915;-59
2023/06/30 01:57:21;;;;;;;;;;;;;;;17.52;53.16;100535.63;7356408;19;20018;-59
2023/06/30 01:59:47;;;;;;;;;;;;;;;17.47;53.69;100538.50;7352841;19;19922;-59
2023/06/30 02:02:12;;;;;;;;;;;;;;;17.42;53.69;100534.41;7357179;19;19944;-59
2023/06/30 02:04:37;;;;;;;;;;;;;;;17.35;53.95;100533.91;7354352;19;19923;-58
2023/06/30 02:07:03;;;;;;;;;;;;;;;17.30;54.15;100525.38;7353443;19;19926;-59
2023/06/30 02:09:29;;;;;;;;;;;;;;;17.25;54.08;100512.44;7356933;19;20454;-59
2023/06/30 02:11:54;;;;;;;;;;;;;;;17.19;53.91;100512.75;7358973;19;19948;-58
2023/06/30 02:14:19;;;;;;;;;;;;;;;17.16;54.13;100517.34;7351888;19;20620;-57
2023/06/30 02:16:45;;;;;;;;;;;;;;;17.11;54.47;100510.50;7360159;19;19925;-58
2023/06/30 02:19:10;;;;;;;;;;;;;;;17.08;55.34;100504.53;7351819;19;20611;-59
2023/06/30 02:21:35;;;;;;;;;;;;;;;17.03;54.84;100501.28;7356804;19;19923;-59
2023/06/30 02:24:01;;;;;;;;;;;;;;;16.99;55.76;100483.94;7355217;19;19937;-58
2023/06/30 02:26:26;;;;;;;;;;;;;;;16.93;55.98;100478.97;7356378;19;19918;-58
2023/06/30 02:28:51;;;;;;;;;;;;;;;16.86;56.07;100473.16;7350427;19;19927;-59
2023/06/30 02:31:16;;;;;;;;;;;;;;;16.81;56.39;100476.03;7355641;19;19930;-58
2023/06/30 02:33:42;;;;;;;;;;;;;;;16.75;56.84;100465.81;7357107;19;19923;-58
2023/06/30 02:36:07;;;;;;;;;;;;;;;16.68;56.92;100460.94;7349999;19;19922;-57
2023/06/30 02:38:32;;;;;;;;;;;;;;;16.60;56.90;100461.31;7358501;19;20021;-58
2023/06/30 02:40:58;;;;;;;;;;;;;;;16.53;57.63;100459.94;7352402;19;20446;-58
2023/06/30 02:43:23;;;;;;;;;;;;;;;16.47;57.89;100452.31;7355288;19;19922;-58
2023/06/30 02:45:48;;;;;;;;;;;;;;;16.41;58.07;100450.00;7353712;19;19923;-58
2023/06/30 02:48:13;;;;;;;;;;;;;;;16.33;58.53;100447.75;7353291;19;20723;-58
2023/06/30 02:50:39;;;;;;;;;;;;;;;16.28;58.33;100441.88;7354957;19;19927;-56
2023/06/30 02:53:04;;;;;;;;;;;;;;;16.23;58.15;100447.38;7357353;19;20316;-59
2023/06/30 02:55:29;;;;;;;;;;;;;;;16.19;58.44;100437.91;7354170;19;19953;-59
2023/06/30 02:57:56;;;;;;;;;;;;;;;16.15;58.85;100438.97;7351529;19;19918;-58
2023/06/30 03:00:21;;;;;;;;;;;;;;;16.11;59.69;100437.41;7356944;19;20643;-58
2023/06/30 03:02:47;;;;;;;;;;;;;;;16.09;60.13;100439.28;7330433;19;19935;-58
2023/06/30 03:05:12;;;;;;;;;;;;;;;16.06;60.38;100428.91;7354950;19;19951;-59
2023/06/30 03:07:37;;;;;;;;;;;;;;;16.03;61.60;100429.06;7352430;19;19934;-58
2023/06/30 03:10:03;;;;;;;;;;;;;;;16.00;61.59;100434.47;7353408;19;19923;-59
2023/06/30 03:12:28;;;;;;;;;;;;;;;15.97;61.70;100426.75;7356990;19;20495;-59
2023/06/30 03:14:53;;;;;;;;;;;;;;;15.95;61.86;100431.22;7358169;19;20159;-59
2023/06/30 03:17:19;;;;;;;;;;;;;;;15.93;62.39;100430.44;7356628;19;19938;-58
2023/06/30 03:19:44;;;;;;;;;;;;;;;15.92;62.47;100420.84;7354233;19;20485;-58
2023/06/30 03:22:09;;;;;;;;;;;;;;;15.90;62.13;100420.06;7356395;19;20746;-59
2023/06/30 03:24:35;;;;;;;;;;;;;;;15.90;62.55;100417.41;7356998;19;19951;-58
2023/06/30 03:27:00;;;;;;;;;;;;;;;15.90;62.59;100409.53;7349878;19;20435;-59
2023/06/30 03:29:25;;;;;;;;;;;;;;;15.89;63.03;100406.03;7356349;19;19926;-59
2023/06/30 03:31:51;;;;;;;;;;;;;;;15.89;63.24;100408.66;7347639;19;19922;-58
2023/06/30 03:34:16;;;;;;;;;;;;;;;15.88;63.14;100404.34;7352525;19;20006;-59
2023/06/30 03:36:41;;;;;;;;;;;;;;;15.88;63.59;100414.88;7358708;19;19935;-58
2023/06/30 03:39:07;;;;;;;;;;;;;;;15.88;64.22;100414.88;7354333;19;19915;-59
2023/06/30 03:41:32;;;;;;;;;;;;;;;15.88;64.23;100414.88;7357912;19;19922;-59
2023/06/30 03:43:57;;;;;;;;;;;;;;;15.88;63.66;100419.28;7352743;19;21021;-58
2023/06/30 03:46:22;;;;;;;;;;;;;;;15.89;64.07;100410.47;7359565;19;19927;-59
2023/06/30 03:48:48;;;;;;;;;;;;;;;15.88;64.30;100400.84;7346202;19;19931;-58
2023/06/30 03:51:13;;;;;;;;;;;;;;;15.89;64.78;100394.66;7353926;19;19937;-58
2023/06/30 03:53:40;;;;;;;;;;;;;;;15.58;64.67;100332.97;7353365;19;19939;-58
2023/06/30 03:56:06;;;;;;;;;;;;;;;15.89;65.07;100373.59;7354836;19;19929;-59
2023/06/30 03:58:31;;;;;;;;;;;;;;;15.88;64.66;100369.25;7353497;19;20387;-59
2023/06/30 04:00:56;;;;;;;;;;;;;;;15.89;65.13;100370.97;7355944;19;19933;-58
2023/06/30 04:03:22;;;;;;;;;;;;;;;15.88;65.85;100366.63;7342610;19;19955;-59
2023/06/30 04:05:47;;;;;;;;;;;;;;;15.87;65.49;100365.78;7353166;19;19943;-59
2023/06/30 04:08:12;;;;;;;;;;;;;;;15.87;65.79;100370.19;7352390;19;19951;-59
2023/06/30 04:10:37;;;;;;;;;;;;;;;15.86;66.23;100374.59;7354627;19;19931;-59
2023/06/30 04:13:06;;;;;;;;;;;;;;;15.86;65.85;100379.00;7352328;19;20485;-59
2023/06/30 04:15:31;;;;;;;;;;;;;;;15.85;65.87;100378.16;7354365;19;19944;-58
2023/06/30 04:17:56;;;;;;;;;;;;;;;15.85;66.07;100366.78;7355753;19;19922;-59
2023/06/30 04:20:21;;;;;;;;;;;;;;;15.85;66.24;100361.50;7354061;19;19935;-59
2023/06/30 04:22:47;;;;;;;;;;;;;;;15.85;66.31;100366.78;7353547;19;19929;-59
2023/06/30 04:25:13;;;;;;;;;;;;;;;15.86;66.45;100374.59;7355062;19;19922;-58
2023/06/30 04:27:38;;;;;;;;;;;;;;;15.86;66.53;100368.47;7351270;19;19923;-59
2023/06/30 04:30:04;;;;;;;;;;;;;;;15.87;66.67;100363.16;7352221;19;19919;-59
2023/06/30 04:32:29;;;;;;;;;;;;;;;15.87;66.47;100352.63;7355256;19;20021;-59
2023/06/30 04:34:57;;;;;;;;;;;;;;;15.91;66.56;100355.91;7352134;19;19975;-59
2023/06/30 04:37:23;;;;;;;;;;;;;;;15.92;66.61;100349.75;7352690;19;19974;-59
2023/06/30 04:39:50;;;;;;;;;;;;;;;15.93;66.53;100344.41;7354024;19;19987;-59
2023/06/30 04:42:15;;;;;;;;;;;;;;;15.95;66.63;100346.94;7350659;19;19918;-59
2023/06/30 04:44:40;;;;;;;;;;;;;;;15.96;66.84;100343.38;7353726;19;19959;-59
2023/06/30 04:47:06;;;;;;;;;;;;;;;15.98;66.70;100342.38;7350882;19;19942;-59
2023/06/30 04:49:31;;;;;;;;;;;;;;;15.75;66.74;100298.78;7353089;19;19935;-59
2023/06/30 04:51:57;;;;;;;;;;;;;;;16.04;66.65;100333.31;7352934;19;19933;-59
2023/06/30 04:54:22;;;;;;;;;;;;;;;16.06;66.67;100334.06;7352537;19;19919;-60
2023/06/30 04:56:47;;;;;;;;;;;;;;;16.08;66.75;100329.59;7351412;19;20203;-59
2023/06/30 04:59:13;;;;;;;;;;;;;;;16.11;67.35;100323.31;7351335;19;21626;-59
2023/06/30 05:01:38;;;;;;;;;;;;;;;16.11;67.28;100316.25;7355863;19;19927;-59
2023/06/30 05:04:03;;;;;;;;;;;;;;;16.13;67.52;100313.56;7350639;19;19955;-59
2023/06/30 05:06:28;;;;;;;;;;;;;;;16.12;67.42;100307.44;7353542;19;19930;-59
2023/06/30 05:08:54;;;;;;;;;;;;;;;16.11;67.43;100308.34;7351313;19;19915;-58
2023/06/30 05:11:19;;;;;;;;;;;;;;;16.11;67.37;100294.34;7351829;19;20934;-59
2023/06/30 05:13:44;;;;;;;;;;;;;;;16.11;67.26;100295.19;7353625;19;19922;-59
2023/06/30 05:16:11;;;;;;;;;;;;;;;16.11;68.29;100284.66;7345536;19;19915;-58
2023/06/30 05:18:36;;;;;;;;;;;;;;;16.11;67.99;100275.88;7350253;19;19961;-59
2023/06/30 05:21:01;;;;;;;;;;;;;;;16.08;67.92;100269.00;7354775;19;19923;-59
2023/06/30 05:23:27;;;;;;;;;;;;;;;16.09;68.29;100270.72;7347924;19;19918;-59
2023/06/30 05:25:52;;;;;;;;;;;;;;;16.09;68.08;100260.19;7350785;19;20722;-59
2023/06/30 05:28:18;;;;;;;;;;;;;;;16.08;68.60;100266.38;7348581;19;19930;-59
2023/06/30 05:30:43;;;;;;;;;;;;;;;16.09;68.49;100281.25;7342526;19;19926;-60
2023/06/30 05:33:08;;;;;;;;;;;;;;;16.08;68.25;100274.28;7351519;19;19915;-59
2023/06/30 05:35:33;;;;;;;;;;;;;;;16.07;68.42;100265.53;7353445;19;19919;-59
2023/06/30 05:37:59;;;;;;;;;;;;;;;16.09;68.19;100260.19;7351546;19;19927;-59
2023/06/30 05:40:25;;;;;;;;;;;;;;;16.10;68.65;100261.88;7349575;19;19998;-59
2023/06/30 05:42:50;;;;;;;;;;;;;;;16.10;68.56;100259.25;7351014;19;19930;-59
2023/06/30 05:45:15;;;;;;;;;;;;;;;16.12;68.96;100260.03;7351936;19;19980;-59
2023/06/30 05:47:41;;;;;;;;;;;;;;;16.13;68.49;100256.47;7351973;19;19965;-56
2023/06/30 05:50:06;;;;;;;;;;;;;;;16.15;68.70;100259.00;7348542;19;20756;-59
2023/06/30 05:52:31;;;;;;;;;;;;;;;16.15;69.12;100249.31;7352488;19;19943;-59
2023/06/30 05:54:57;;;;;;;;;;;;;;;16.16;69.29;100261.53;7346959;19;20004;-58
2023/06/30 05:57:22;;;;;;;;;;;;;;;16.16;69.28;100261.53;7353218;19;19923;-60
2023/06/30 05:59:47;;;;;;;;;;;;;;;16.16;69.05;100261.53;7343844;19;19906;-59
2023/06/30 06:02:12;;;;;;;;;;;;;;;16.18;69.20;100258.84;7349814;19;20562;-60
2023/06/30 06:04:38;;;;;;;;;;;;;;;16.17;68.88;100255.38;7352275;19;19926;-59
2023/06/30 06:07:05;;;;;;;;;;;;;;;16.17;68.91;100247.47;7347476;19;20637;-59
2023/06/30 06:09:30;;;;;;;;;;;;;;;16.19;69.25;100242.94;7348074;19;19915;-60
2023/06/30 06:11:56;;;;;;;;;;;;;;;16.18;69.09;100238.63;7348501;19;19922;-59
2023/06/30 06:14:21;;;;;;;;;;;;;;;16.19;69.01;100240.31;7347044;19;19930;-59
2023/06/30 06:16:46;;;;;;;;;;;;;;;16.19;69.27;100232.41;7351990;19;19923;-59
2023/06/30 06:19:14;;;;;;;;;;;;;;;16.20;69.72;100242.00;7346983;19;19919;-58
2023/06/30 06:21:39;;;;;;;;;;;;;;;16.20;69.55;100234.13;7348593;19;19915;-60
2023/06/30 06:24:05;;;;;;;;;;;;;;;16.20;69.61;100246.44;7350615;19;20276;-59
2023/06/30 06:26:30;;;;;;;;;;;;;;;16.21;69.73;100242.88;7350584;19;20369;-60
2023/06/30 06:28:55;;;;;;;;;;;;;;;16.21;69.98;100238.44;7345777;19;20458;-59
2023/06/30 06:31:24;;;;;;;;;;;;;;;16.21;69.98;100230.53;7348562;19;20639;-59
2023/06/30 06:33:49;;;;;;;;;;;;;;;16.24;70.05;100238.28;7356840;19;19918;-59
2023/06/30 06:36:14;;;;;;;;;;;;;;;16.28;70.74;100229.28;7353623;19;19975;-58
2023/06/30 06:38:40;;;;;;;;;;;;;;;16.31;70.32;100225.63;7353638;19;19919;-59
2023/06/30 06:41:05;;;;;;;;;;;;;;;16.35;70.34;100225.38;7354959;19;19921;-58
2023/06/30 06:43:30;;;;;;;;;;;;;;;16.38;70.29;100231.44;7355500;19;19923;-59
2023/06/30 06:45:55;;;;;;;;;;;;;;;16.41;70.40;100228.63;7356116;19;19922;-60
2023/06/30 06:48:28;;;;;;;;;;;;;;;16.44;70.35;100225.84;7354628;19;19926;-59
2023/06/30 06:50:54;;;;;;;;;;;;;;;16.46;70.79;100229.22;7353322;19;19925;-59
2023/06/30 06:53:20;;;;;;;;;;;;;;;16.47;70.16;100223.84;7354030;19;19921;-59
2023/06/30 06:55:54;;;;;;;;;;;;;;;16.49;70.35;100232.53;7354376;19;19914;-59
2023/06/30 06:58:20;;;;;;;;;;;;;;;16.53;70.72;100227.97;7356083;19;19910;-59
2023/06/30 07:00:46;;;;;;;;;;;;;;;16.56;70.15;100230.41;7357077;19;19935;-59
2023/06/30 07:03:12;;;;;;;;;;;;;;;16.58;70.35;100241.75;7350599;19;20376;-59
2023/06/30 07:05:40;;;;;;;;;;;;;;;16.59;70.09;100238.16;7355970;19;19926;-59
2023/06/30 07:08:06;;;;;;;;;;;;;;;16.61;70.30;100237.13;7355212;19;20623;-59
2023/06/30 07:10:31;;;;;;;;;;;;;;;16.63;70.05;100239.72;7325737;19;19943;-59
2023/06/30 07:12:56;;;;;;;;;;;;;;;16.64;70.42;100241.41;7348869;19;19919;-60
2023/06/30 07:15:22;;;;;;;;;;;;;;;16.64;70.51;100238.75;7345912;19;19940;-58
2023/06/30 07:17:47;;;;;;;;;;;;;;;16.66;70.58;100234.25;7352425;19;19987;-59
2023/06/30 07:20:12;;;;;;;;;;;;;;;16.67;70.61;100235.94;7356500;19;19959;-58
2023/06/30 07:22:37;;;;;;;;;;;;;;;16.71;70.55;100234.00;7351673;19;19936;-59
2023/06/30 07:25:06;;;;;;;;;;;;;;;16.72;70.18;100228.66;7354301;19;19917;-59
2023/06/30 07:27:31;;;;;;;;;;;;;;;16.74;70.75;100228.59;7353619;19;20622;-60
2023/06/30 07:29:56;;;;;;;;;;;;;;;16.77;70.48;100242.44;7353496;19;19936;-60
2023/06/30 07:32:22;;;;;;;;;;;;;;;16.80;70.71;100236.16;7354028;19;20294;-59
2023/06/30 07:34:47;;;;;;;;;;;;;;;16.82;70.72;100235.13;7353003;19;19948;-59
2023/06/30 07:37:12;;;;;;;;;;;;;;;16.85;70.60;100234.97;7350118;19;19923;-59
2023/06/30 07:39:37;;;;;;;;;;;;;;;16.89;70.39;100224.25;7353291;19;20293;-59
2023/06/30 07:42:03;;;;;;;;;;;;;;;16.92;70.61;100224.91;7343233;19;19915;-58
2023/06/30 07:44:28;;;;;;;;;;;;;;;16.96;71.05;100230.88;7348264;19;20631;-58
2023/06/30 07:46:53;;;;;;;;;;;;;;;17.01;70.59;100224.38;7355553;19;19922;-58
2023/06/30 07:49:20;;;;;;;;;;;;;;;17.05;70.91;100240.91;7352444;19;19923;-59
2023/06/30 07:51:46;;;;;;;;;;;;;;;17.10;70.85;100233.56;7352451;19;19926;-58
2023/06/30 07:54:12;;;;;;;;;;;;;;;17.13;70.42;100228.09;7354460;19;19954;-59
2023/06/30 07:56:38;;;;;;;;;;;;;;;17.16;70.94;100227.94;7352875;19;20543;-58
2023/06/30 07:59:03;;;;;;;;;;;;;;;17.19;70.59;100234.84;7352234;19;19943;-58
2023/06/30 08:01:28;;;;;;;;;;;;;;;17.20;70.78;100232.13;7356124;19;19922;-59
2023/06/30 08:03:54;;;;;;;;;;;;;;;17.23;70.87;100228.44;7351549;19;19917;-58
2023/06/30 08:06:19;;;;;;;;;;;;;;;17.27;71.02;100220.25;7350044;19;19930;-58
2023/06/30 08:08:44;;;;;;;;;;;;;;;17.29;70.67;100217.53;7354167;19;20271;-59
2023/06/30 08:11:10;;;;;;;;;;;;;;;17.32;71.30;100218.19;7353251;19;19942;-59
2023/06/30 08:13:35;;;;;;;;;;;;;;;17.35;70.91;100215.38;7352831;19;20379;-59
2023/06/30 08:16:01;;;;;;;;;;;;;;;17.15;71.09;100178.75;7356857;19;19927;-59
2023/06/30 08:18:28;;;;;;;;;;;;;;;17.43;71.39;100211.44;7352660;19;19924;-58
2023/06/30 08:20:55;;;;;;;;;;;;;;;17.46;71.43;100211.28;7353046;19;19938;-58
2023/06/30 08:23:21;;;;;;;;;;;;;;;17.53;71.65;100209.94;7352141;19;19974;-59
2023/06/30 08:25:46;;;;;;;;;;;;;;;17.58;71.64;100197.31;7344472;19;20028;-59
2023/06/30 08:28:11;;;;;;;;;;;;;;;17.59;71.69;100191.97;7346941;19;20001;-59
2023/06/30 08:30:36;;;;;;;;;;;;;;;17.67;71.76;100196.78;7343214;19;19943;-59
2023/06/30 08:33:02;;;;;;;;;;;;;;;17.72;71.69;100189.44;7356695;19;19926;-59
2023/06/30 08:35:27;;;;;;;;;;;;;;;17.76;71.57;100190.97;7358731;19;19943;-59
2023/06/30 08:37:52;;;;;;;;;;;;;;;17.81;71.30;100188.91;7356168;19;19923;-59
2023/06/30 08:40:36;;;;;;;;;;;;;;;17.84;71.31;100180.81;7353977;19;19942;-59
2023/06/30 08:43:11;;;;;;;;;;;;;;;17.87;71.43;100180.59;7345194;19;19922;-59
2023/06/30 08:45:38;;;;;;;;;;;;;;;17.92;71.45;100185.63;7349419;19;19914;-58
2023/06/30 08:48:04;;;;;;;;;;;;;;;17.96;71.79;100178.34;7355358;19;19932;-59
2023/06/30 08:50:31;;;;;;;;;;;;;;;18.01;72.00;100173.63;7352503;19;20482;-58
2023/06/30 08:52:57;;;;;;;;;;;;;;;18.05;72.03;100175.16;7358552;19;19923;-58
2023/06/30 08:55:22;;;;;;;;;;;;;;;18.08;72.03;100164.38;7348530;19;20589;-58
2023/06/30 08:57:48;;;;;;;;;;;;;;;18.10;71.67;100168.63;7358224;19;19948;-58
2023/06/30 09:00:14;;;;;;;;;;;;;;;18.14;71.67;100177.19;7352991;19;19936;-59
2023/06/30 09:02:40;;;;;;;;;;;;;;;18.17;72.22;100174.38;7357329;19;19919;-59
2023/06/30 09:05:05;;;;;;;;;;;;;;;18.21;71.71;100175.03;7356616;19;19947;-59
2023/06/30 09:07:41;;;;;;;;;;;;;;;18.23;71.99;100173.97;7351233;19;20404;-59
2023/06/30 09:10:09;;;;;;;;;;;;;;;18.24;71.67;100170.38;7355320;19;20407;-59
2023/06/30 09:12:34;;;;;;;;;;;;;;;18.25;71.58;100166.81;7356194;19;19986;-57
2023/06/30 09:15:01;;;;;;;;;;;;;;;18.25;71.41;100169.47;7355676;19;19982;-59
2023/06/30 09:17:27;;;;;;;;;;;;;;;18.24;71.68;100165.09;7355532;19;19943;-59
2023/06/30 09:19:53;;;;;;;;;;;;;;;18.25;71.43;100165.94;7351931;19;19923;-59
2023/06/30 09:22:19;;;;;;;;;;;;;;;18.25;71.39;100160.66;7346119;19;20027;-58
2023/06/30 09:24:45;;;;;;;;;;;;;;;18.26;71.76;100159.75;7355810;19;19923;-59
2023/06/30 09:27:10;;;;;;;;;;;;;;;18.26;71.91;100155.31;7352415;19;19970;-59
2023/06/30 09:29:36;;;;;;;;;;;;;;;18.27;71.79;100150.84;7353901;19;20310;-59
2023/06/30 09:32:02;;;;;;;;;;;;;;;18.28;72.08;100140.19;7353431;19;19914;-58
2023/06/30 09:34:27;;;;;;;;;;;;;;;18.30;72.17;100140.94;7356778;19;19919;-59
2023/06/30 09:36:54;;;;;;;;;;;;;;;18.34;72.60;100129.22;7353839;19;19930;-59
2023/06/30 09:39:19;;;;;;;;;;;;;;;18.39;72.64;100126.28;7326719;19;19919;-59
2023/06/30 09:41:45;;;;;;;;;;;;;;;18.46;72.74;100132.03;7350465;19;19937;-59
2023/06/30 09:44:11;;;;;;;;;;;;;;;18.53;73.04;100128.03;7352407;19;19937;-59
2023/06/30 09:46:44;;;;;;;;;;;;;;;18.60;73.14;100129.31;7355303;19;20470;-59
2023/06/30 09:49:21;;;;;;;;;;;;;;;18.67;73.49;100120.06;7353128;19;19911;-59
2023/06/30 09:51:46;;;;;;;;;;;;;;;18.74;73.33;100126.66;7353804;19;20016;-58
2023/06/30 09:54:11;;;;;;;;;;;;;;;18.78;72.71;100122.03;7355189;19;19974;-60
2023/06/30 09:56:39;;;;;;;;;;;;;;;18.82;73.07;100116.44;7352023;19;19927;-60
2023/06/30 09:59:05;;;;;;;;;;;;;;;18.90;73.29;100119.41;7357616;19;20384;-58
2023/06/30 10:01:31;;;;;;;;;;;;;;;19.00;73.52;100121.44;7355811;19;19995;-58
2023/06/30 10:03:56;;;;;;;;;;;;;;;19.10;73.70;100111.94;7341721;19;21180;-59
2023/06/30 10:06:22;;;;;;;;;;;;;;;19.19;74.08;100106.03;7346344;19;19940;-59
2023/06/30 10:08:49;;;;;;;;;;;;;;;19.28;73.90;100113.34;7361992;19;19986;-59
2023/06/30 10:11:14;;;;;;;;;;;;;;;19.36;73.53;100107.50;7362211;19;19914;-59
2023/06/30 10:13:41;;;;;;;;;;;;;;;19.39;73.28;100116.09;7360647;19;19917;-58
2023/06/30 10:16:07;;;;;;;;;;;;;;;19.43;73.09;100109.66;7362698;19;19943;-58
2023/06/30 10:18:34;;;;;;;;;;;;;;;19.48;73.16;100113.78;7359668;19;19919;-59
2023/06/30 10:20:59;;;;;;;;;;;;;;;19.50;73.10;100099.47;7360496;19;20758;-59
2023/06/30 10:23:26;;;;;;;;;;;;;;;19.55;73.33;100109.75;7361282;19;19935;-58
2023/06/30 10:25:51;;;;;;;;;;;;;;;19.58;73.25;100113.03;7359065;19;19926;-58
2023/06/30 10:28:17;;;;;;;;;;;;;;;19.62;72.87;100113.72;7358250;19;19931;-58
2023/06/30 10:30:43;;;;;;;;;;;;;;;19.64;72.92;100107.34;7338235;19;19965;-58
2023/06/30 10:33:08;;;;;;;;;;;;;;;19.66;72.95;100109.88;7353031;19;19947;-59
2023/06/30 10:35:34;;;;;;;;;;;;;;;19.64;72.81;100106.50;7350204;19;19922;-58
2023/06/30 10:38:00;;;;;;;;;;;;;;;19.62;72.30;100100.47;7346202;19;19943;-59
2023/06/30 10:40:26;;;;;;;;;;;;;;;19.61;72.57;100098.75;7351699;19;19927;-60
2023/06/30 10:42:53;;;;;;;;;;;;;;;19.59;72.36;100082.09;7348585;19;20031;-59
2023/06/30 10:45:19;;;;;;;;;;;;;;;19.60;72.78;100083.81;7348270;19;20785;-59
2023/06/30 10:47:48;;;;;;;;;;;;;;;19.62;72.61;100084.56;7348466;19;20006;-58
2023/06/30 10:50:13;;;;;;;;;;;;;;;19.68;73.65;100076.19;7350488;19;20796;-59
2023/06/30 10:52:47;;;;;;;;;;;;;;;19.72;73.49;100072.38;7351719;19;19932;-58
2023/06/30 10:55:13;;;;;;;;;;;;;;;19.78;73.80;100071.09;7347274;19;20447;-59
2023/06/30 10:57:39;;;;;;;;;;;;;;;19.85;73.71;100065.22;7349897;19;20014;-59
2023/06/30 11:00:05;;;;;;;;;;;;;;;19.91;73.81;100071.91;7350523;19;19919;-59
2023/06/30 11:02:31;;;;;;;;;;;;;;;19.96;73.31;100060.00;7348503;19;19931;-57
2023/06/30 11:04:59;;;;;;;;;;;;;;;20.06;74.01;100069.94;7346573;19;20656;-59
2023/06/30 11:07:28;;;;;;;;;;;;;;;20.09;73.65;100062.63;7347520;19;19955;-58
2023/06/30 11:09:53;;;;;;;;;;;;;;;20.14;73.79;100064.94;7349860;19;19934;-57
2023/06/30 11:12:19;;;;;;;;;;;;;;;20.19;73.50;100065.47;7350664;19;20754;-58
2023/06/30 11:14:58;;;;;;;;;;;;;;;20.20;73.22;100061.84;7350397;19;20656;-59
2023/06/30 11:17:27;;;;;;;;;;;;;;;20.21;73.11;100058.22;7347437;19;19929;-58
2023/06/30 11:20:01;;;;;;;;;;;;;;;20.20;72.70;100064.50;7350155;19;19925;-59
2023/06/30 11:22:30;;;;;;;;;;;;;;;20.19;72.55;100058.34;7348616;19;19915;-59
2023/06/30 11:24:56;;;;;;;;;;;;;;;20.20;72.90;100067.16;7346295;19;20615;-59
2023/06/30 11:27:21;;;;;;;;;;;;;;;20.19;72.78;100054.84;7349424;19;19926;-59
2023/06/30 11:29:50;;;;;;;;;;;;;;;20.17;73.08;100056.75;7341141;19;19929;-59
2023/06/30 11:32:18;;;;;;;;;;;;;;;20.15;72.68;100032.19;7326386;19;20624;-59
2023/06/30 11:34:44;;;;;;;;;;;;;;;20.14;73.26;100052.53;7341017;19;20051;-59
2023/06/30 11:37:09;;;;;;;;;;;;;;;20.13;72.86;100039.41;7341507;19;19915;-59
2023/06/30 11:39:35;;;;;;;;;;;;;;;20.14;73.11;100046.41;7341738;19;19994;-58
2023/06/30 11:42:00;;;;;;;;;;;;;;;20.16;73.19;100033.88;7340933;19;19923;-58
2023/06/30 11:44:25;;;;;;;;;;;;;;;20.20;73.62;100035.34;7342340;19;19919;-58
2023/06/30 11:46:51;;;;;;;;;;;;;;;20.23;73.90;100028.97;7344238;19;19950;-58
2023/06/30 11:49:16;;;;;;;;;;;;;;;20.25;74.01;100022.59;7346517;19;19943;-58
2023/06/30 11:51:42;;;;;;;;;;;;;;;20.29;73.79;100026.72;7343961;19;19919;-58
2023/06/30 11:54:07;;;;;;;;;;;;;;;20.33;73.71;100022.88;7343912;19;19947;-58
2023/06/30 11:56:33;;;;;;;;;;;;;;;20.34;73.91;100015.78;7346000;19;19929;-58
2023/06/30 11:58:58;;;;;;;;;;;;;;;20.33;73.59;100009.63;7345864;19;20430;-58
2023/06/30 12:01:23;;;;;;;;;;;;;;;20.30;73.54;100015.13;7348258;19;19993;-57
2023/06/30 12:04:10;;;;;;;;;;;;;;;20.28;73.40;100011.78;7346831;19;20666;-58
2023/06/30 12:06:36;;;;;;;;;;;;;;;20.29;73.97;100010.81;7344012;19;20019;-58
2023/06/30 12:09:01;;;;;;;;;;;;;;;20.31;73.77;100019.47;7347549;19;20236;-58
2023/06/30 12:11:28;;;;;;;;;;;;;;;20.32;73.73;100013.22;7343249;19;19943;-58
2023/06/30 12:13:53;;;;;;;;;;;;;;;20.31;73.91;100006.22;7343146;19;19938;-58
2023/06/30 12:16:19;;;;;;;;;;;;;;;20.29;73.74;100013.47;7345102;19;19938;-58
2023/06/30 12:18:44;;;;;;;;;;;;;;;20.28;73.72;100011.78;7346485;19;19946;-57
2023/06/30 12:21:11;;;;;;;;;;;;;;;20.03;73.48;99966.81;7346795;19;20841;-58
2023/06/30 12:23:43;;;;;;;;;;;;;;;20.25;73.66;100001.38;7349404;19;20629;-58
2023/06/30 12:26:10;;;;;;;;;;;;;;;19.90;73.85;99951.81;7347069;19;20645;-57
2023/06/30 12:28:35;;;;;;;;;;;;;;;20.23;73.76;100003.31;7350084;19;19936;-57
2023/06/30 12:31:00;;;;;;;;;;;;;;;20.23;73.79;99998.00;7345997;19;20627;-58